Syracuse, New York
Current Conditions -  °F | °C
As of 11:54 PM on Monday 26 Jan 2015 (Local Time) from KSYR Reporting Station
Overcast Overcast  
Wind Chill:   Ceiling: 7500
Heat Index: 15°   Visibility: 10mi
Dew Point: 11°   Wind: 9mph
Humidity: 84%   Direction: 340°NNW
Pressure: 29.93"   Gusts: NA
Location:  43.05°N, 76.15°W
Report Text: KSYR 270454Z 34008KT 10SM BKN075 OVC080 M09/M12 A2993 RMK AO2 SLP138 BKN V OVC T10941117 410781161 $
Loading
Personal Weather Stations






























Interactive Weather Map New forecast layout! Learn more

10-Day Weather Forecast

Advertisements
Track Severe Weather on mobile